sensor_id;sensor_type;location;lat;lon;timestamp;temperature;humidity
16437;DHT22;8328;52.206;21.006;2023-05-15T00:00:34;16.50;27.90
16437;DHT22;8328;52.206;21.006;2023-05-15T00:03:02;16.40;27.90
16437;DHT22;8328;52.206;21.006;2023-05-15T00:05:28;16.40;28.00
16437;DHT22;8328;52.206;21.006;2023-05-15T00:07:53;16.50;28.10
16437;DHT22;8328;52.206;21.006;2023-05-15T00:10:19;16.40;28.10
16437;DHT22;8328;52.206;21.006;2023-05-15T00:12:45;16.50;28.20
16437;DHT22;8328;52.206;21.006;2023-05-15T00:15:11;16.40;28.10
16437;DHT22;8328;52.206;21.006;2023-05-15T00:17:37;16.40;28.20
16437;DHT22;8328;52.206;21.006;2023-05-15T00:20:03;16.40;28.20
16437;DHT22;8328;52.206;21.006;2023-05-15T00:22:29;16.40;28.30
16437;DHT22;8328;52.206;21.006;2023-05-15T00:24:55;16.30;28.20
16437;DHT22;8328;52.206;21.006;2023-05-15T00:27:21;16.30;28.20
16437;DHT22;8328;52.206;21.006;2023-05-15T00:29:46;16.30;28.20
16437;DHT22;8328;52.206;21.006;2023-05-15T00:32:12;16.30;28.20
16437;DHT22;8328;52.206;21.006;2023-05-15T00:34:38;16.30;28.20
16437;DHT22;8328;52.206;21.006;2023-05-15T00:37:04;16.30;28.30
16437;DHT22;8328;52.206;21.006;2023-05-15T00:39:30;16.30;28.40
16437;DHT22;8328;52.206;21.006;2023-05-15T00:41:56;16.20;28.50
16437;DHT22;8328;52.206;21.006;2023-05-15T00:44:24;16.20;28.50
16437;DHT22;8328;52.206;21.006;2023-05-15T00:46:52;16.20;28.60
16437;DHT22;8328;52.206;21.006;2023-05-15T00:49:20;16.20;28.60
16437;DHT22;8328;52.206;21.006;2023-05-15T00:51:47;16.20;28.60
16437;DHT22;8328;52.206;21.006;2023-05-15T00:54:12;16.20;28.70
16437;DHT22;8328;52.206;21.006;2023-05-15T00:56:39;16.20;28.70
16437;DHT22;8328;52.206;21.006;2023-05-15T00:59:07;16.20;28.70
16437;DHT22;8328;52.206;21.006;2023-05-15T01:01:33;16.20;28.60
16437;DHT22;8328;52.206;21.006;2023-05-15T01:04:01;16.20;28.60
16437;DHT22;8328;52.206;21.006;2023-05-15T01:06:29;16.20;28.70
16437;DHT22;8328;52.206;21.006;2023-05-15T01:08:58;16.20;28.70
16437;DHT22;8328;52.206;21.006;2023-05-15T01:11:27;15.00;27.90
16437;DHT22;8328;52.206;21.006;2023-05-15T01:14:02;16.20;28.70
16437;DHT22;8328;52.206;21.006;2023-05-15T01:16:28;16.20;28.70
16437;DHT22;8328;52.206;21.006;2023-05-15T01:18:54;16.20;28.60
16437;DHT22;8328;52.206;21.006;2023-05-15T01:24:31;16.20;28.70
16437;DHT22;8328;52.206;21.006;2023-05-15T01:27:19;16.20;28.70
16437;DHT22;8328;52.206;21.006;2023-05-15T01:32:33;16.20;28.80
16437;DHT22;8328;52.206;21.006;2023-05-15T01:35:20;16.20;28.90
16437;DHT22;8328;52.206;21.006;2023-05-15T01:37:56;16.10;29.00
16437;DHT22;8328;52.206;21.006;2023-05-15T01:40:25;16.10;29.00
16437;DHT22;8328;52.206;21.006;2023-05-15T01:43:00;16.10;29.10
16437;DHT22;8328;52.206;21.006;2023-05-15T01:45:28;16.00;29.20
16437;DHT22;8328;52.206;21.006;2023-05-15T01:47:55;16.00;29.20
16437;DHT22;8328;52.206;21.006;2023-05-15T01:50:21;16.00;29.30
16437;DHT22;8328;52.206;21.006;2023-05-15T01:52:55;16.00;29.30
16437;DHT22;8328;52.206;21.006;2023-05-15T01:55:24;16.00;29.40
16437;DHT22;8328;52.206;21.006;2023-05-15T01:57:51;16.00;29.50
16437;DHT22;8328;52.206;21.006;2023-05-15T02:00:17;16.00;29.60
16437;DHT22;8328;52.206;21.006;2023-05-15T02:02:45;16.00;29.60
16437;DHT22;8328;52.206;21.006;2023-05-15T02:05:13;16.00;29.60
16437;DHT22;8328;52.206;21.006;2023-05-15T02:07:41;16.00;29.70
16437;DHT22;8328;52.206;21.006;2023-05-15T02:10:09;16.00;30.20
16437;DHT22;8328;52.206;21.006;2023-05-15T02:12:36;16.00;29.80
16437;DHT22;8328;52.206;21.006;2023-05-15T02:15:03;16.00;29.80
16437;DHT22;8328;52.206;21.006;2023-05-15T02:17:29;16.00;29.80
16437;DHT22;8328;52.206;21.006;2023-05-15T02:19:55;16.00;29.70
16437;DHT22;8328;52.206;21.006;2023-05-15T02:22:21;16.00;29.80
16437;DHT22;8328;52.206;21.006;2023-05-15T02:24:47;16.00;29.80
16437;DHT22;8328;52.206;21.006;2023-05-15T02:27:19;16.00;29.90
16437;DHT22;8328;52.206;21.006;2023-05-15T02:35:13;16.10;30.00
16437;DHT22;8328;52.206;21.006;2023-05-15T02:37:44;16.00;30.00
16437;DHT22;8328;52.206;21.006;2023-05-15T02:40:12;16.10;30.10
16437;DHT22;8328;52.206;21.006;2023-05-15T02:42:40;16.10;30.10
16437;DHT22;8328;52.206;21.006;2023-05-15T02:45:08;16.00;30.20
16437;DHT22;8328;52.206;21.006;2023-05-15T02:47:35;16.00;30.30
16437;DHT22;8328;52.206;21.006;2023-05-15T02:50:02;16.00;30.50
16437;DHT22;8328;52.206;21.006;2023-05-15T02:52:28;16.00;30.70
16437;DHT22;8328;52.206;21.006;2023-05-15T02:54:54;16.00;30.70
16437;DHT22;8328;52.206;21.006;2023-05-15T02:57:20;15.90;30.80
16437;DHT22;8328;52.206;21.006;2023-05-15T02:59:46;15.90;30.80
16437;DHT22;8328;52.206;21.006;2023-05-15T03:02:12;16.00;31.00
16437;DHT22;8328;52.206;21.006;2023-05-15T03:04:37;16.00;31.00
16437;DHT22;8328;52.206;21.006;2023-05-15T03:07:03;16.00;31.10
16437;DHT22;8328;52.206;21.006;2023-05-15T03:09:29;16.00;31.10
16437;DHT22;8328;52.206;21.006;2023-05-15T03:11:55;16.50;31.50
16437;DHT22;8328;52.206;21.006;2023-05-15T03:14:23;16.00;31.10
16437;DHT22;8328;52.206;21.006;2023-05-15T03:16:49;16.00;31.20
16437;DHT22;8328;52.206;21.006;2023-05-15T03:19:14;16.00;31.20
16437;DHT22;8328;52.206;21.006;2023-05-15T03:21:40;16.00;31.30
16437;DHT22;8328;52.206;21.006;2023-05-15T03:24:06;16.10;31.30
16437;DHT22;8328;52.206;21.006;2023-05-15T03:26:32;16.00;31.30
16437;DHT22;8328;52.206;21.006;2023-05-15T03:28:59;16.00;31.50
16437;DHT22;8328;52.206;21.006;2023-05-15T03:31:25;16.00;31.50
16437;DHT22;8328;52.206;21.006;2023-05-15T03:33:52;16.00;31.50
16437;DHT22;8328;52.206;21.006;2023-05-15T03:36:18;16.00;31.50
16437;DHT22;8328;52.206;21.006;2023-05-15T03:38:44;16.00;31.60
16437;DHT22;8328;52.206;21.006;2023-05-15T03:41:10;16.00;31.50
16437;DHT22;8328;52.206;21.006;2023-05-15T03:43:36;16.00;31.60
16437;DHT22;8328;52.206;21.006;2023-05-15T03:46:01;16.00;31.60
16437;DHT22;8328;52.206;21.006;2023-05-15T03:48:27;16.00;31.70
16437;DHT22;8328;52.206;21.006;2023-05-15T03:50:53;16.00;32.40
16437;DHT22;8328;52.206;21.006;2023-05-15T03:53:19;16.00;31.70
16437;DHT22;8328;52.206;21.006;2023-05-15T03:55:44;16.10;31.70
16437;DHT22;8328;52.206;21.006;2023-05-15T03:58:10;16.20;31.70
16437;DHT22;8328;52.206;21.006;2023-05-15T04:00:36;16.20;31.80
16437;DHT22;8328;52.206;21.006;2023-05-15T04:03:02;16.30;31.70
16437;DHT22;8328;52.206;21.006;2023-05-15T04:05:27;16.30;31.60
16437;DHT22;8328;52.206;21.006;2023-05-15T04:07:53;16.20;31.60
16437;DHT22;8328;52.206;21.006;2023-05-15T04:10:19;16.30;31.70
16437;DHT22;8328;52.206;21.006;2023-05-15T04:12:45;16.30;31.80
16437;DHT22;8328;52.206;21.006;2023-05-15T04:15:22;16.30;32.00
16437;DHT22;8328;52.206;21.006;2023-05-15T04:17:52;16.30;32.10
16437;DHT22;8328;52.206;21.006;2023-05-15T04:20:20;16.40;32.10
16437;DHT22;8328;52.206;21.006;2023-05-15T04:22:46;16.40;32.20
16437;DHT22;8328;52.206;21.006;2023-05-15T04:25:13;16.40;32.50
16437;DHT22;8328;52.206;21.006;2023-05-15T04:27:43;16.40;33.00
16437;DHT22;8328;52.206;21.006;2023-05-15T04:30:10;16.40;33.40
16437;DHT22;8328;52.206;21.006;2023-05-15T04:32:37;16.40;33.70
16437;DHT22;8328;52.206;21.006;2023-05-15T04:35:04;16.40;34.20
16437;DHT22;8328;52.206;21.006;2023-05-15T04:37:30;16.40;33.90
16437;DHT22;8328;52.206;21.006;2023-05-15T04:39:56;16.40;33.70
16437;DHT22;8328;52.206;21.006;2023-05-15T04:42:22;16.40;33.60
16437;DHT22;8328;52.206;21.006;2023-05-15T04:44:47;16.40;33.70
16437;DHT22;8328;52.206;21.006;2023-05-15T04:47:13;16.50;33.70
16437;DHT22;8328;52.206;21.006;2023-05-15T04:49:40;16.50;33.80
16437;DHT22;8328;52.206;21.006;2023-05-15T04:52:06;16.50;34.30
16437;DHT22;8328;52.206;21.006;2023-05-15T04:54:32;16.50;34.50
16437;DHT22;8328;52.206;21.006;2023-05-15T04:56:58;16.60;34.90
16437;DHT22;8328;52.206;21.006;2023-05-15T04:59:25;16.40;34.80
16437;DHT22;8328;52.206;21.006;2023-05-15T05:01:53;16.50;34.60
16437;DHT22;8328;52.206;21.006;2023-05-15T05:04:19;16.50;34.40
16437;DHT22;8328;52.206;21.006;2023-05-15T05:06:48;16.50;34.50
16437;DHT22;8328;52.206;21.006;2023-05-15T05:09:14;16.50;34.20
16437;DHT22;8328;52.206;21.006;2023-05-15T05:11:40;16.60;34.20
16437;DHT22;8328;52.206;21.006;2023-05-15T05:14:14;16.60;34.80
16437;DHT22;8328;52.206;21.006;2023-05-15T05:16:43;17.00;37.10
16437;DHT22;8328;52.206;21.006;2023-05-15T05:19:08;17.30;36.20
16437;DHT22;8328;52.206;21.006;2023-05-15T05:21:34;17.40;36.00
16437;DHT22;8328;52.206;21.006;2023-05-15T05:24:00;17.40;35.90
16437;DHT22;8328;52.206;21.006;2023-05-15T05:26:27;17.60;36.10
16437;DHT22;8328;52.206;21.006;2023-05-15T05:28:53;17.60;35.60
16437;DHT22;8328;52.206;21.006;2023-05-15T05:31:19;17.60;35.30
16437;DHT22;8328;52.206;21.006;2023-05-15T05:33:45;17.70;35.00
16437;DHT22;8328;52.206;21.006;2023-05-15T05:36:11;18.00;35.20
16437;DHT22;8328;52.206;21.006;2023-05-15T05:38:37;18.30;34.30
16437;DHT22;8328;52.206;21.006;2023-05-15T05:41:03;18.40;33.30
16437;DHT22;8328;52.206;21.006;2023-05-15T05:43:29;18.20;31.80
16437;DHT22;8328;52.206;21.006;2023-05-15T05:45:55;18.20;32.30
16437;DHT22;8328;52.206;21.006;2023-05-15T05:48:21;18.20;31.90
16437;DHT22;8328;52.206;21.006;2023-05-15T05:50:47;18.10;32.20
16437;DHT22;8328;52.206;21.006;2023-05-15T05:53:13;18.10;32.60
16437;DHT22;8328;52.206;21.006;2023-05-15T05:55:39;18.20;32.80
16437;DHT22;8328;52.206;21.006;2023-05-15T05:58:09;18.30;32.80
16437;DHT22;8328;52.206;21.006;2023-05-15T06:00:35;18.50;33.00
16437;DHT22;8328;52.206;21.006;2023-05-15T06:03:01;18.60;33.40
16437;DHT22;8328;52.206;21.006;2023-05-15T06:05:27;18.70;33.30
16437;DHT22;8328;52.206;21.006;2023-05-15T06:07:53;18.50;33.00
16437;DHT22;8328;52.206;21.006;2023-05-15T06:10:20;18.50;33.60
16437;DHT22;8328;52.206;21.006;2023-05-15T06:12:47;18.40;34.40
16437;DHT22;8328;52.206;21.006;2023-05-15T06:15:14;18.30;35.10
16437;DHT22;8328;52.206;21.006;2023-05-15T06:17:40;18.10;35.90
16437;DHT22;8328;52.206;21.006;2023-05-15T06:20:07;17.90;37.40
16437;DHT22;8328;52.206;21.006;2023-05-15T06:22:37;17.70;37.50
16437;DHT22;8328;52.206;21.006;2023-05-15T06:25:04;17.60;37.90
16437;DHT22;8328;52.206;21.006;2023-05-15T06:27:31;17.60;38.50
16437;DHT22;8328;52.206;21.006;2023-05-15T06:29:59;17.60;39.30
16437;DHT22;8328;52.206;21.006;2023-05-15T06:32:25;17.60;39.60
16437;DHT22;8328;52.206;21.006;2023-05-15T06:34:50;16.50;40.10
16437;DHT22;8328;52.206;21.006;2023-05-15T06:37:16;17.30;42.10
16437;DHT22;8328;52.206;21.006;2023-05-15T06:39:42;17.00;43.90
16437;DHT22;8328;52.206;21.006;2023-05-15T06:42:08;16.90;45.70
16437;DHT22;8328;52.206;21.006;2023-05-15T06:44:34;16.80;47.90
16437;DHT22;8328;52.206;21.006;2023-05-15T06:47:01;16.70;50.00
16437;DHT22;8328;52.206;21.006;2023-05-15T06:49:27;16.50;52.90
16437;DHT22;8328;52.206;21.006;2023-05-15T06:51:53;16.40;57.30
16437;DHT22;8328;52.206;21.006;2023-05-15T06:54:20;16.20;63.70
16437;DHT22;8328;52.206;21.006;2023-05-15T06:56:47;16.10;73.20
16437;DHT22;8328;52.206;21.006;2023-05-15T06:59:13;16.00;85.10
16437;DHT22;8328;52.206;21.006;2023-05-15T07:01:40;16.00;92.50
16437;DHT22;8328;52.206;21.006;2023-05-15T07:04:06;15.90;96.60
16437;DHT22;8328;52.206;21.006;2023-05-15T07:06:31;15.70;99.90
16437;DHT22;8328;52.206;21.006;2023-05-15T07:08:58;15.70;99.90
16437;DHT22;8328;52.206;21.006;2023-05-15T07:11:24;15.70;99.90
16437;DHT22;8328;52.206;21.006;2023-05-15T07:13:51;15.60;99.90
16437;DHT22;8328;52.206;21.006;2023-05-15T07:16:17;15.50;99.90
16437;DHT22;8328;52.206;21.006;2023-05-15T07:18:43;15.50;99.90
16437;DHT22;8328;52.206;21.006;2023-05-15T07:21:09;15.40;99.90
16437;DHT22;8328;52.206;21.006;2023-05-15T07:23:35;15.50;99.90
16437;DHT22;8328;52.206;21.006;2023-05-15T07:26:02;16.80;99.90
16437;DHT22;8328;52.206;21.006;2023-05-15T07:28:28;15.80;99.90
16437;DHT22;8328;52.206;21.006;2023-05-15T07:30:53;16.00;99.90
16437;DHT22;8328;52.206;21.006;2023-05-15T07:33:19;16.20;99.90
16437;DHT22;8328;52.206;21.006;2023-05-15T07:35:45;16.40;99.90
16437;DHT22;8328;52.206;21.006;2023-05-15T07:38:12;16.50;99.90
16437;DHT22;8328;52.206;21.006;2023-05-15T07:40:38;16.80;99.90
16437;DHT22;8328;52.206;21.006;2023-05-15T07:43:04;17.10;99.90
16437;DHT22;8328;52.206;21.006;2023-05-15T07:45:30;17.20;99.90
16437;DHT22;8328;52.206;21.006;2023-05-15T07:47:56;17.10;99.90
16437;DHT22;8328;52.206;21.006;2023-05-15T07:50:23;17.10;99.90
16437;DHT22;8328;52.206;21.006;2023-05-15T07:52:49;17.10;99.90
16437;DHT22;8328;52.206;21.006;2023-05-15T07:55:15;17.10;99.90
16437;DHT22;8328;52.206;21.006;2023-05-15T09:01:26;15.70;99.90
16437;DHT22;8328;52.206;21.006;2023-05-15T09:03:52;15.60;99.90
16437;DHT22;8328;52.206;21.006;2023-05-15T09:06:18;15.40;99.90
16437;DHT22;8328;52.206;21.006;2023-05-15T09:08:45;15.30;99.90
16437;DHT22;8328;52.206;21.006;2023-05-15T09:11:11;15.20;99.90
16437;DHT22;8328;52.206;21.006;2023-05-15T09:13:38;15.40;99.90
16437;DHT22;8328;52.206;21.006;2023-05-15T09:16:04;15.50;99.90
16437;DHT22;8328;52.206;21.006;2023-05-15T09:18:31;15.70;99.90
16437;DHT22;8328;52.206;21.006;2023-05-15T09:21:27;16.00;99.90
16437;DHT22;8328;52.206;21.006;2023-05-15T09:23:54;16.40;99.90
16437;DHT22;8328;52.206;21.006;2023-05-15T09:28:48;16.40;99.90
16437;DHT22;8328;52.206;21.006;2023-05-15T09:31:18;16.40;99.90
16437;DHT22;8328;52.206;21.006;2023-05-15T09:33:44;16.30;99.90
16437;DHT22;8328;52.206;21.006;2023-05-15T09:36:09;16.50;99.90
16437;DHT22;8328;52.206;21.006;2023-05-15T09:38:42;16.60;99.90
16437;DHT22;8328;52.206;21.006;2023-05-15T09:41:11;16.60;99.90
16437;DHT22;8328;52.206;21.006;2023-05-15T09:43:38;16.60;99.90
16437;DHT22;8328;52.206;21.006;2023-05-15T09:46:05;16.60;99.90
16437;DHT22;8328;52.206;21.006;2023-05-15T09:48:31;16.50;99.90
16437;DHT22;8328;52.206;21.006;2023-05-15T09:50:58;16.50;99.90
16437;DHT22;8328;52.206;21.006;2023-05-15T09:53:24;16.50;99.90
16437;DHT22;8328;52.206;21.006;2023-05-15T09:55:51;16.60;99.90
16437;DHT22;8328;52.206;21.006;2023-05-15T09:58:18;16.70;99.90
16437;DHT22;8328;52.206;21.006;2023-05-15T10:00:45;16.60;99.90
16437;DHT22;8328;52.206;21.006;2023-05-15T10:03:11;16.80;99.90
16437;DHT22;8328;52.206;21.006;2023-05-15T10:05:38;17.20;99.90
16437;DHT22;8328;52.206;21.006;2023-05-15T10:08:04;17.40;99.90
16437;DHT22;8328;52.206;21.006;2023-05-15T10:10:31;17.30;99.90
16437;DHT22;8328;52.206;21.006;2023-05-15T10:12:58;17.40;99.90
16437;DHT22;8328;52.206;21.006;2023-05-15T10:15:26;17.20;99.90
16437;DHT22;8328;52.206;21.006;2023-05-15T10:17:53;16.90;99.90
16437;DHT22;8328;52.206;21.006;2023-05-15T10:20:21;16.60;99.90
16437;DHT22;8328;52.206;21.006;2023-05-15T10:22:53;16.40;99.90
16437;DHT22;8328;52.206;21.006;2023-05-15T10:25:44;16.50;99.90
16437;DHT22;8328;52.206;21.006;2023-05-15T10:28:11;16.50;99.90
16437;DHT22;8328;52.206;21.006;2023-05-15T10:30:37;16.50;99.90
16437;DHT22;8328;52.206;21.006;2023-05-15T10:33:05;16.60;99.90
16437;DHT22;8328;52.206;21.006;2023-05-15T10:35:31;16.60;99.90
16437;DHT22;8328;52.206;21.006;2023-05-15T10:37:57;16.70;99.90
16437;DHT22;8328;52.206;21.006;2023-05-15T10:40:23;16.60;99.90
16437;DHT22;8328;52.206;21.006;2023-05-15T10:42:49;16.60;99.90
16437;DHT22;8328;52.206;21.006;2023-05-15T10:45:17;16.40;99.90
16437;DHT22;8328;52.206;21.006;2023-05-15T10:47:44;16.50;99.90
16437;DHT22;8328;52.206;21.006;2023-05-15T10:50:11;16.50;99.90
16437;DHT22;8328;52.206;21.006;2023-05-15T10:52:38;16.50;99.90
16437;DHT22;8328;52.206;21.006;2023-05-15T10:55:12;16.30;99.90
16437;DHT22;8328;52.206;21.006;2023-05-15T10:57:38;16.40;99.90
16437;DHT22;8328;52.206;21.006;2023-05-15T11:00:24;16.40;99.90
16437;DHT22;8328;52.206;21.006;2023-05-15T11:02:50;16.50;99.90
16437;DHT22;8328;52.206;21.006;2023-05-15T11:05:21;16.70;99.90
16437;DHT22;8328;52.206;21.006;2023-05-15T11:08:25;16.60;99.90
16437;DHT22;8328;52.206;21.006;2023-05-15T11:10:51;16.60;99.90
16437;DHT22;8328;52.206;21.006;2023-05-15T11:13:18;16.60;99.90
16437;DHT22;8328;52.206;21.006;2023-05-15T11:15:46;16.30;99.90
16437;DHT22;8328;52.206;21.006;2023-05-15T11:18:12;16.20;99.90
16437;DHT22;8328;52.206;21.006;2023-05-15T11:20:42;16.00;99.90
16437;DHT22;8328;52.206;21.006;2023-05-15T11:23:37;15.90;99.90
16437;DHT22;8328;52.206;21.006;2023-05-15T11:26:04;16.20;99.90
16437;DHT22;8328;52.206;21.006;2023-05-15T11:28:30;16.30;99.90
16437;DHT22;8328;52.206;21.006;2023-05-15T11:31:05;16.30;99.90
16437;DHT22;8328;52.206;21.006;2023-05-15T11:33:31;16.20;99.90
16437;DHT22;8328;52.206;21.006;2023-05-15T11:35:58;16.20;99.90
16437;DHT22;8328;52.206;21.006;2023-05-15T11:38:25;16.10;99.90
16437;DHT22;8328;52.206;21.006;2023-05-15T11:40:58;16.10;99.90
16437;DHT22;8328;52.206;21.006;2023-05-15T11:43:31;16.10;99.90
16437;DHT22;8328;52.206;21.006;2023-05-15T11:46:04;15.90;99.90
16437;DHT22;8328;52.206;21.006;2023-05-15T11:48:44;15.90;99.90
16437;DHT22;8328;52.206;21.006;2023-05-15T11:51:23;15.80;99.90
16437;DHT22;8328;52.206;21.006;2023-05-15T11:53:53;15.70;99.90
16437;DHT22;8328;52.206;21.006;2023-05-15T11:56:20;15.70;99.90
16437;DHT22;8328;52.206;21.006;2023-05-15T11:58:48;15.70;99.90
16437;DHT22;8328;52.206;21.006;2023-05-15T12:01:14;15.60;99.90
16437;DHT22;8328;52.206;21.006;2023-05-15T12:03:40;15.50;99.90
16437;DHT22;8328;52.206;21.006;2023-05-15T12:06:06;15.50;99.90
16437;DHT22;8328;52.206;21.006;2023-05-15T12:08:35;15.50;99.90
16437;DHT22;8328;52.206;21.006;2023-05-15T12:11:02;15.40;99.90
16437;DHT22;8328;52.206;21.006;2023-05-15T12:13:30;15.50;99.90
16437;DHT22;8328;52.206;21.006;2023-05-15T12:15:56;15.60;99.90
16437;DHT22;8328;52.206;21.006;2023-05-15T12:18:23;15.70;99.90
16437;DHT22;8328;52.206;21.006;2023-05-15T12:20:51;15.70;99.90
16437;DHT22;8328;52.206;21.006;2023-05-15T12:23:20;15.70;99.90
16437;DHT22;8328;52.206;21.006;2023-05-15T12:25:46;15.70;99.90
16437;DHT22;8328;52.206;21.006;2023-05-15T12:28:13;15.80;99.90
16437;DHT22;8328;52.206;21.006;2023-05-15T12:30:41;15.70;99.90
16437;DHT22;8328;52.206;21.006;2023-05-15T12:33:08;15.70;99.90
16437;DHT22;8328;52.206;21.006;2023-05-15T12:35:42;15.00;99.90
16437;DHT22;8328;52.206;21.006;2023-05-15T12:38:13;15.60;99.90
16437;DHT22;8328;52.206;21.006;2023-05-15T12:40:39;15.60;99.90
16437;DHT22;8328;52.206;21.006;2023-05-15T12:43:06;15.60;99.90
16437;DHT22;8328;52.206;21.006;2023-05-15T12:45:32;15.50;99.90
16437;DHT22;8328;52.206;21.006;2023-05-15T12:48:01;15.60;99.90
16437;DHT22;8328;52.206;21.006;2023-05-15T12:50:26;15.60;99.90
16437;DHT22;8328;52.206;21.006;2023-05-15T12:53:01;15.60;99.90
16437;DHT22;8328;52.206;21.006;2023-05-15T12:55:29;15.60;99.90
16437;DHT22;8328;52.206;21.006;2023-05-15T12:58:03;15.60;99.90
16437;DHT22;8328;52.206;21.006;2023-05-15T13:00:35;15.50;99.90
16437;DHT22;8328;52.206;21.006;2023-05-15T13:03:02;15.50;99.90
16437;DHT22;8328;52.206;21.006;2023-05-15T13:05:30;15.50;99.90
16437;DHT22;8328;52.206;21.006;2023-05-15T13:08:02;15.40;99.90
16437;DHT22;8328;52.206;21.006;2023-05-15T13:10:31;15.40;99.90
16437;DHT22;8328;52.206;21.006;2023-05-15T13:12:57;15.50;99.90
16437;DHT22;8328;52.206;21.006;2023-05-15T13:15:30;15.50;99.90
16437;DHT22;8328;52.206;21.006;2023-05-15T13:18:00;15.60;99.90
16437;DHT22;8328;52.206;21.006;2023-05-15T13:20:35;15.60;99.90
16437;DHT22;8328;52.206;21.006;2023-05-15T13:23:02;15.50;99.90
16437;DHT22;8328;52.206;21.006;2023-05-15T13:25:28;15.50;99.90
16437;DHT22;8328;52.206;21.006;2023-05-15T13:27:57;15.50;99.90
16437;DHT22;8328;52.206;21.006;2023-05-15T13:30:23;15.50;99.90
16437;DHT22;8328;52.206;21.006;2023-05-15T13:32:51;15.40;99.90
16437;DHT22;8328;52.206;21.006;2023-05-15T13:35:17;15.30;99.90
16437;DHT22;8328;52.206;21.006;2023-05-15T13:37:43;15.40;99.90
16437;DHT22;8328;52.206;21.006;2023-05-15T13:40:09;15.50;99.90
16437;DHT22;8328;52.206;21.006;2023-05-15T13:42:40;15.80;99.90
16437;DHT22;8328;52.206;21.006;2023-05-15T13:45:11;16.10;99.90
16437;DHT22;8328;52.206;21.006;2023-05-15T13:47:37;16.20;99.90
16437;DHT22;8328;52.206;21.006;2023-05-15T13:50:08;16.20;99.90
16437;DHT22;8328;52.206;21.006;2023-05-15T13:52:34;16.50;99.90
16437;DHT22;8328;52.206;21.006;2023-05-15T13:55:00;16.50;99.90
16437;DHT22;8328;52.206;21.006;2023-05-15T13:57:26;16.50;99.90
16437;DHT22;8328;52.206;21.006;2023-05-15T13:59:52;16.60;99.90
16437;DHT22;8328;52.206;21.006;2023-05-15T14:02:18;16.60;99.90
16437;DHT22;8328;52.206;21.006;2023-05-15T14:04:45;16.60;99.90
16437;DHT22;8328;52.206;21.006;2023-05-15T14:07:11;16.50;99.90
16437;DHT22;8328;52.206;21.006;2023-05-15T14:09:37;16.60;99.90
16437;DHT22;8328;52.206;21.006;2023-05-15T14:12:03;16.60;99.90
16437;DHT22;8328;52.206;21.006;2023-05-15T14:14:29;16.60;99.90
16437;DHT22;8328;52.206;21.006;2023-05-15T14:16:54;16.70;99.90
16437;DHT22;8328;52.206;21.006;2023-05-15T14:19:20;16.80;99.90
16437;DHT22;8328;52.206;21.006;2023-05-15T14:21:47;16.90;99.90
16437;DHT22;8328;52.206;21.006;2023-05-15T14:24:13;17.10;99.90
16437;DHT22;8328;52.206;21.006;2023-05-15T14:26:39;17.10;99.90
16437;DHT22;8328;52.206;21.006;2023-05-15T14:29:05;17.10;99.90
16437;DHT22;8328;52.206;21.006;2023-05-15T14:31:30;16.90;99.90
16437;DHT22;8328;52.206;21.006;2023-05-15T14:33:58;17.10;99.90
16437;DHT22;8328;52.206;21.006;2023-05-15T14:36:25;17.00;99.90
16437;DHT22;8328;52.206;21.006;2023-05-15T14:38:50;16.90;99.90
16437;DHT22;8328;52.206;21.006;2023-05-15T14:41:17;17.00;99.90
16437;DHT22;8328;52.206;21.006;2023-05-15T14:43:43;17.00;99.90
16437;DHT22;8328;52.206;21.006;2023-05-15T14:46:08;16.90;99.90
16437;DHT22;8328;52.206;21.006;2023-05-15T14:48:35;16.70;99.90
16437;DHT22;8328;52.206;21.006;2023-05-15T14:51:00;16.60;99.90
16437;DHT22;8328;52.206;21.006;2023-05-15T14:53:26;16.70;99.90
16437;DHT22;8328;52.206;21.006;2023-05-15T14:55:53;16.60;99.90
16437;DHT22;8328;52.206;21.006;2023-05-15T14:58:19;16.50;99.90
16437;DHT22;8328;52.206;21.006;2023-05-15T15:00:45;16.40;99.90
16437;DHT22;8328;52.206;21.006;2023-05-15T15:03:12;16.40;99.90
16437;DHT22;8328;52.206;21.006;2023-05-15T15:05:38;16.30;99.90
16437;DHT22;8328;52.206;21.006;2023-05-15T15:08:06;16.30;99.90
16437;DHT22;8328;52.206;21.006;2023-05-15T15:10:34;16.40;99.90
16437;DHT22;8328;52.206;21.006;2023-05-15T15:13:00;16.40;99.90
16437;DHT22;8328;52.206;21.006;2023-05-15T15:15:26;16.40;99.90
16437;DHT22;8328;52.206;21.006;2023-05-15T15:17:52;16.30;99.90
16437;DHT22;8328;52.206;21.006;2023-05-15T15:20:19;16.40;99.90
16437;DHT22;8328;52.206;21.006;2023-05-15T15:22:46;16.50;99.90
16437;DHT22;8328;52.206;21.006;2023-05-15T15:27:47;16.70;99.90
16437;DHT22;8328;52.206;21.006;2023-05-15T15:30:14;17.10;99.90
16437;DHT22;8328;52.206;21.006;2023-05-15T15:32:41;17.30;99.90
16437;DHT22;8328;52.206;21.006;2023-05-15T15:35:07;17.70;99.90
16437;DHT22;8328;52.206;21.006;2023-05-15T15:37:34;18.10;99.90
16437;DHT22;8328;52.206;21.006;2023-05-15T15:40:01;18.50;99.90
16437;DHT22;8328;52.206;21.006;2023-05-15T15:42:27;19.00;99.90
16437;DHT22;8328;52.206;21.006;2023-05-15T15:44:54;20.10;99.90
16437;DHT22;8328;52.206;21.006;2023-05-15T15:47:20;20.90;99.90
16437;DHT22;8328;52.206;21.006;2023-05-15T15:49:46;21.50;99.90
16437;DHT22;8328;52.206;21.006;2023-05-15T15:52:12;21.90;99.90
16437;DHT22;8328;52.206;21.006;2023-05-15T15:54:38;22.50;99.90
16437;DHT22;8328;52.206;21.006;2023-05-15T15:57:04;22.90;99.90
16437;DHT22;8328;52.206;21.006;2023-05-15T15:59:30;22.80;99.90
16437;DHT22;8328;52.206;21.006;2023-05-15T16:01:56;22.40;99.90
16437;DHT22;8328;52.206;21.006;2023-05-15T16:04:22;22.00;99.90
16437;DHT22;8328;52.206;21.006;2023-05-15T16:06:48;21.40;99.90
16437;DHT22;8328;52.206;21.006;2023-05-15T16:09:15;21.00;99.90
16437;DHT22;8328;52.206;21.006;2023-05-15T16:11:44;20.70;99.90
16437;DHT22;8328;52.206;21.006;2023-05-15T16:14:10;20.50;99.90
16437;DHT22;8328;52.206;21.006;2023-05-15T16:16:43;20.10;99.90
16437;DHT22;8328;52.206;21.006;2023-05-15T16:19:09;20.00;99.90
16437;DHT22;8328;52.206;21.006;2023-05-15T16:21:35;19.60;99.90
16437;DHT22;8328;52.206;21.006;2023-05-15T16:24:02;19.00;99.90
16437;DHT22;8328;52.206;21.006;2023-05-15T16:26:28;18.60;99.90
16437;DHT22;8328;52.206;21.006;2023-05-15T16:28:53;18.60;99.90
16437;DHT22;8328;52.206;21.006;2023-05-15T16:31:19;18.50;99.90
16437;DHT22;8328;52.206;21.006;2023-05-15T16:33:49;18.50;99.90
16437;DHT22;8328;52.206;21.006;2023-05-15T16:36:16;18.70;99.90
16437;DHT22;8328;52.206;21.006;2023-05-15T16:38:42;19.00;99.90
16437;DHT22;8328;52.206;21.006;2023-05-15T16:41:09;19.00;99.90
16437;DHT22;8328;52.206;21.006;2023-05-15T16:43:35;18.90;99.90
16437;DHT22;8328;52.206;21.006;2023-05-15T16:46:03;18.80;99.90
16437;DHT22;8328;52.206;21.006;2023-05-15T16:48:29;18.50;99.90
16437;DHT22;8328;52.206;21.006;2023-05-15T16:50:55;18.20;99.90